createdAt,value
2022-12-18T00:01:21.512Z,83.53
2022-12-18T00:03:49.195Z,83.66
2022-12-18T00:06:16.559Z,83.63
2022-12-18T00:08:44.016Z,83.61
2022-12-18T00:11:13.393Z,83.59
2022-12-18T00:13:40.658Z,83.06
2022-12-18T00:16:11.785Z,83.13
2022-12-18T00:18:38.652Z,82.96
2022-12-18T00:21:07.560Z,83.24
2022-12-18T00:23:35.985Z,83.47
2022-12-18T00:26:04.819Z,83.57
2022-12-18T00:28:31.989Z,83.92
2022-12-18T00:31:01.747Z,84.05
2022-12-18T00:33:30.294Z,84.07
2022-12-18T00:36:01.587Z,83.51
2022-12-18T00:38:28.253Z,83.33
2022-12-18T00:40:54.755Z,82.47
2022-12-18T00:43:21.409Z,82.92
2022-12-18T00:45:47.975Z,83.17
2022-12-18T00:48:14.608Z,83.55
2022-12-18T00:50:42.771Z,83.85
2022-12-18T00:53:09.561Z,83.76
2022-12-18T00:55:36.153Z,84.10
2022-12-18T00:58:02.910Z,83.53
2022-12-18T01:00:29.469Z,83.65
2022-12-18T01:02:56.125Z,83.06
2022-12-18T01:05:23.046Z,82.94
2022-12-18T01:07:50.988Z,83.02
2022-12-18T01:10:17.833Z,82.88
2022-12-18T01:12:44.539Z,82.78
2022-12-18T01:15:13.392Z,82.83
2022-12-18T01:17:40.017Z,82.78
2022-12-18T01:20:08.249Z,82.84
2022-12-18T01:22:34.870Z,82.89
2022-12-18T01:25:03.706Z,83.19
2022-12-18T01:27:31.986Z,83.61
2022-12-18T01:29:58.498Z,83.77
2022-12-18T01:32:25.918Z,84.18
2022-12-18T01:34:52.614Z,84.13
2022-12-18T01:37:19.985Z,83.74
2022-12-18T01:39:46.515Z,83.73
2022-12-18T01:42:16.296Z,83.69
2022-12-18T01:44:56.176Z,83.37
2022-12-18T01:47:26.404Z,83.30
2022-12-18T01:49:53.944Z,82.64
2022-12-18T01:52:22.679Z,82.67
2022-12-18T01:54:51.565Z,82.68
2022-12-18T01:57:20.608Z,82.88
2022-12-18T01:59:52.694Z,82.48
2022-12-18T02:02:20.237Z,82.60
2022-12-18T02:04:49.562Z,82.68
2022-12-18T02:07:25.825Z,82.51
2022-12-18T02:09:59.287Z,82.43
2022-12-18T02:12:35.724Z,82.58
2022-12-18T02:15:08.997Z,82.52
2022-12-18T02:17:43.771Z,82.63
2022-12-18T02:20:18.124Z,82.20
2022-12-18T02:22:56.776Z,82.22
2022-12-18T02:25:41.013Z,82.20
2022-12-18T02:28:13.031Z,82.38
2022-12-18T02:30:42.112Z,82.21
2022-12-18T02:33:11.973Z,82.52
2022-12-18T02:35:41.605Z,82.54
2022-12-18T02:38:09.248Z,82.31
2022-12-18T02:40:39.443Z,82.46
2022-12-18T02:43:10.753Z,82.51
2022-12-18T02:45:46.751Z,82.56
2022-12-18T02:48:14.359Z,82.23
2022-12-18T02:50:51.253Z,82.47
2022-12-18T02:53:27.209Z,81.89
2022-12-18T02:55:59.707Z,82.09
2022-12-18T02:58:35.181Z,82.00
2022-12-18T03:01:15.051Z,82.54
2022-12-18T03:03:47.679Z,82.60
2022-12-18T03:06:21.612Z,82.71
2022-12-18T03:08:53.941Z,82.97
2022-12-18T03:11:21.243Z,83.04
2022-12-18T03:13:57.132Z,83.02
2022-12-18T03:16:27.637Z,82.95
2022-12-18T03:18:58.373Z,82.84
2022-12-18T03:21:29.816Z,82.89
2022-12-18T03:23:57.656Z,82.86
2022-12-18T03:26:29.142Z,82.34
2022-12-18T03:29:05.619Z,81.78
2022-12-18T03:31:33.676Z,81.93
2022-12-18T03:34:05.339Z,81.99
2022-12-18T03:36:40.446Z,82.11
2022-12-18T03:39:07.597Z,81.92
2022-12-18T03:41:44.815Z,81.57
2022-12-18T03:44:30.001Z,81.41
2022-12-18T03:47:04.629Z,81.70
2022-12-18T03:49:36.373Z,82.21
2022-12-18T03:52:08.118Z,82.40
2022-12-18T03:54:36.289Z,82.69
2022-12-18T03:57:15.397Z,82.87
2022-12-18T03:59:44.962Z,82.91
2022-12-18T04:02:16.824Z,82.95
2022-12-18T04:04:45.144Z,82.82
2022-12-18T04:07:14.218Z,82.97
2022-12-18T04:09:46.400Z,83.11
2022-12-18T04:12:14.072Z,82.83
2022-12-18T04:14:40.837Z,82.69
2022-12-18T04:17:10.711Z,82.23
2022-12-18T04:19:37.424Z,81.92
2022-12-18T04:22:04.240Z,81.97
2022-12-18T04:24:38.089Z,81.87
2022-12-18T04:27:15.154Z,82.05
2022-12-18T04:29:46.757Z,82.06
2022-12-18T04:32:16.094Z,82.01
2022-12-18T04:34:44.321Z,82.05
2022-12-18T04:37:11.013Z,81.91
2022-12-18T04:39:37.641Z,82.07
2022-12-18T04:42:10.258Z,81.97
2022-12-18T04:44:37.141Z,81.71
2022-12-18T04:47:03.987Z,82.14
2022-12-18T04:49:32.037Z,82.36
2022-12-18T04:51:58.578Z,82.16
2022-12-18T04:54:25.112Z,82.51
2022-12-18T04:56:51.647Z,82.25
2022-12-18T04:59:18.256Z,82.27
2022-12-18T05:01:44.767Z,82.29
2022-12-18T05:04:11.563Z,82.37
2022-12-18T05:06:39.451Z,82.37
2022-12-18T05:09:06.154Z,82.12
2022-12-18T05:11:32.663Z,82.30
2022-12-18T05:13:59.332Z,82.53
2022-12-18T05:16:25.941Z,82.23
2022-12-18T05:18:52.557Z,82.05
2022-12-18T05:21:19.119Z,82.00
2022-12-18T05:23:47.072Z,82.03
2022-12-18T05:26:17.286Z,81.92
2022-12-18T05:28:44.764Z,82.07
2022-12-18T05:31:11.288Z,81.74
2022-12-18T05:33:38.910Z,81.63
2022-12-18T05:36:08.068Z,81.72
2022-12-18T05:38:36.636Z,82.08
2022-12-18T05:41:05.734Z,82.07
2022-12-18T05:43:34.328Z,82.39
2022-12-18T05:46:05.212Z,82.18
2022-12-18T05:48:31.775Z,82.42
2022-12-18T05:51:04.534Z,82.73
2022-12-18T05:53:31.095Z,82.16
2022-12-18T05:56:01.148Z,82.53
2022-12-18T05:58:29.170Z,82.54
2022-12-18T06:00:55.669Z,82.26
2022-12-18T06:03:22.253Z,82.30
2022-12-18T06:05:49.167Z,82.66
2022-12-18T06:08:15.793Z,82.77
2022-12-18T06:10:42.840Z,82.56
2022-12-18T06:13:09.730Z,82.53
2022-12-18T06:15:38.737Z,82.53
2022-12-18T06:18:05.419Z,81.94
2022-12-18T06:20:33.609Z,82.24
2022-12-18T06:23:00.801Z,82.19
2022-12-18T06:25:27.316Z,82.47
2022-12-18T06:27:54.009Z,82.27
2022-12-18T06:30:20.721Z,82.15
2022-12-18T06:32:56.108Z,81.90
2022-12-18T06:35:24.033Z,82.02
2022-12-18T06:37:50.923Z,82.35
2022-12-18T06:40:17.869Z,82.33
2022-12-18T06:42:44.399Z,82.15
2022-12-18T06:45:11.437Z,82.05
2022-12-18T06:47:37.914Z,82.03
2022-12-18T06:50:07.005Z,81.87
2022-12-18T06:52:33.510Z,81.79
2022-12-18T06:55:00.172Z,81.96
2022-12-18T06:57:26.692Z,81.96
2022-12-18T06:59:53.227Z,82.18
2022-12-18T07:02:19.872Z,82.62
2022-12-18T07:04:46.568Z,82.43
2022-12-18T07:07:14.492Z,82.53
2022-12-18T07:09:41.052Z,82.13
2022-12-18T07:12:07.609Z,82.19
2022-12-18T07:14:34.419Z,82.38
2022-12-18T07:17:01.128Z,82.14
2022-12-18T07:19:28.199Z,82.36
2022-12-18T07:21:55.850Z,82.18
2022-12-18T07:24:23.747Z,82.45
2022-12-18T07:26:50.329Z,82.47
2022-12-18T07:29:16.884Z,82.47
2022-12-18T07:31:43.558Z,82.18
2022-12-18T07:34:11.607Z,82.02
2022-12-18T07:36:38.310Z,82.27
2022-12-18T07:39:04.935Z,82.50
2022-12-18T07:41:32.830Z,82.73
2022-12-18T07:44:10.125Z,82.47
2022-12-18T07:46:36.743Z,82.42
2022-12-18T07:49:03.301Z,81.93
2022-12-18T07:51:32.714Z,81.67
2022-12-18T07:53:59.260Z,81.78
2022-12-18T07:56:28.545Z,81.79
2022-12-18T07:58:56.864Z,81.19
2022-12-18T08:01:23.636Z,81.17
2022-12-18T08:03:52.513Z,80.97
2022-12-18T08:06:19.565Z,81.40
2022-12-18T08:08:49.201Z,81.94
2022-12-18T08:11:16.513Z,82.01
2022-12-18T08:13:43.393Z,82.23
2022-12-18T08:16:11.433Z,82.65
2022-12-18T08:18:38.301Z,82.48
2022-12-18T08:21:11.585Z,82.15
2022-12-18T08:23:42.631Z,82.12
2022-12-18T08:26:10.121Z,81.46
2022-12-18T08:28:36.644Z,81.51
2022-12-18T08:31:03.495Z,81.45
2022-12-18T08:33:31.672Z,81.64
2022-12-18T08:36:00.202Z,81.69
2022-12-18T08:38:26.996Z,81.72
2022-12-18T08:40:59.381Z,82.08
2022-12-18T08:43:26.001Z,82.39
2022-12-18T08:45:52.582Z,82.71
2022-12-18T08:48:22.118Z,82.68
2022-12-18T08:50:56.333Z,82.43
2022-12-18T08:53:22.947Z,82.75
2022-12-18T08:55:50.629Z,82.72
2022-12-18T08:58:17.286Z,82.73
2022-12-18T09:00:43.797Z,82.68
2022-12-18T09:03:12.744Z,82.89
2022-12-18T09:05:39.317Z,82.92
2022-12-18T09:08:07.516Z,82.97
2022-12-18T09:10:38.795Z,82.58
2022-12-18T09:13:08.321Z,82.28
2022-12-18T09:15:34.800Z,82.38
2022-12-18T09:18:01.375Z,82.01
2022-12-18T09:20:27.906Z,82.10
2022-12-18T09:22:54.447Z,82.15
2022-12-18T09:25:22.331Z,82.38
2022-12-18T09:27:50.076Z,82.78
2022-12-18T09:30:16.669Z,82.43
2022-12-18T09:32:43.261Z,82.93
2022-12-18T09:35:09.995Z,82.73
2022-12-18T09:37:36.539Z,83.03
2022-12-18T09:40:03.643Z,83.48
2022-12-18T09:42:31.794Z,83.47
2022-12-18T09:45:00.456Z,83.36
2022-12-18T09:47:31.500Z,83.63
2022-12-18T09:50:01.947Z,83.80
2022-12-18T09:52:34.930Z,84.35
2022-12-18T09:55:06.922Z,84.93
2022-12-18T09:57:38.184Z,87.01
2022-12-18T10:00:12.429Z,88.00
2022-12-18T10:02:39.460Z,87.39
2022-12-18T10:05:08.302Z,86.60
2022-12-18T10:07:54.915Z,87.81
2022-12-18T10:10:32.893Z,88.43
2022-12-18T10:13:16.402Z,90.06
2022-12-18T10:15:56.578Z,91.32
2022-12-18T10:18:35.884Z,90.85
2022-12-18T10:21:10.740Z,91.54
2022-12-18T10:23:48.203Z,90.96
2022-12-18T10:26:15.869Z,89.87
2022-12-18T10:28:45.781Z,87.53
2022-12-18T10:31:16.893Z,86.86
2022-12-18T10:33:43.667Z,83.96
2022-12-18T10:36:10.490Z,82.26
2022-12-18T10:38:37.683Z,81.39
2022-12-18T10:41:06.904Z,80.20
2022-12-18T10:43:35.417Z,78.13
2022-12-18T10:46:15.129Z,76.68
2022-12-18T10:48:50.902Z,75.47
2022-12-18T10:51:22.427Z,74.46
2022-12-18T10:53:56.438Z,74.50
2022-12-18T10:56:24.670Z,72.79
2022-12-18T10:58:58.480Z,72.73
2022-12-18T11:01:26.605Z,73.23
2022-12-18T11:04:02.813Z,71.33
2022-12-18T11:06:30.330Z,71.28
2022-12-18T11:09:01.644Z,71.07
2022-12-18T11:11:29.580Z,71.46
2022-12-18T11:14:03.194Z,70.45
2022-12-18T11:16:35.617Z,71.20
2022-12-18T11:19:20.431Z,69.73
2022-12-18T11:21:47.903Z,68.99
2022-12-18T11:24:21.803Z,69.43
2022-12-18T11:26:52.668Z,70.04
2022-12-18T11:29:28.133Z,69.41
2022-12-18T11:32:32.450Z,69.11
2022-12-18T11:35:05.391Z,68.86
2022-12-18T11:37:33.695Z,68.22
2022-12-18T11:40:07.368Z,66.84
2022-12-18T11:42:39.288Z,67.56
2022-12-18T11:45:24.284Z,69.09
2022-12-18T11:47:58.653Z,68.05
2022-12-18T11:50:27.666Z,67.66
2022-12-18T11:52:58.210Z,67.33
2022-12-18T11:55:38.012Z,67.36
2022-12-18T11:58:13.576Z,67.42
2022-12-18T12:00:47.342Z,67.92
2022-12-18T12:03:28.406Z,67.60
2022-12-18T12:06:09.007Z,67.89
2022-12-18T12:08:48.438Z,68.19
2022-12-18T12:11:21.915Z,69.01
2022-12-18T12:14:00.381Z,68.97
2022-12-18T12:16:33.696Z,68.98
2022-12-18T12:19:16.499Z,69.75
2022-12-18T12:21:48.094Z,68.24
2022-12-18T12:24:31.374Z,68.53
2022-12-18T12:27:09.431Z,68.96
2022-12-18T12:29:47.383Z,69.74
2022-12-18T12:32:27.278Z,68.48
2022-12-18T12:35:12.099Z,68.54
2022-12-18T12:37:50.807Z,69.49
2022-12-18T12:40:51.152Z,70.13
2022-12-18T12:43:26.119Z,69.29
2022-12-18T12:45:56.628Z,69.76
2022-12-18T12:48:36.772Z,69.79
2022-12-18T12:51:13.349Z,69.87
2022-12-18T12:53:41.451Z,69.32
2022-12-18T12:56:12.323Z,70.40
2022-12-18T12:58:46.695Z,69.93
2022-12-18T13:01:23.537Z,70.63
2022-12-18T13:03:59.002Z,70.77
2022-12-18T13:06:54.138Z,70.69
2022-12-18T13:09:22.561Z,70.45
2022-12-18T13:11:52.579Z,70.83
2022-12-18T13:14:25.618Z,70.32
2022-12-18T13:16:52.336Z,70.42
2022-12-18T13:19:27.304Z,70.56
2022-12-18T13:21:56.800Z,71.08
2022-12-18T13:24:29.091Z,70.41
2022-12-18T13:26:56.290Z,69.48
2022-12-18T13:29:43.186Z,69.92
2022-12-18T13:32:21.565Z,70.06
2022-12-18T13:34:50.247Z,69.95
2022-12-18T13:37:43.752Z,71.31
2022-12-18T13:40:58.463Z,70.01
2022-12-18T13:43:29.566Z,70.31
2022-12-18T13:46:17.859Z,71.13
2022-12-18T13:48:51.930Z,69.79
2022-12-18T13:51:20.994Z,70.18
2022-12-18T13:53:52.798Z,68.91
2022-12-18T13:56:23.605Z,69.09
2022-12-18T13:59:12.883Z,69.80
2022-12-18T14:01:44.122Z,70.30
2022-12-18T14:04:12.499Z,70.12
2022-12-18T14:06:39.302Z,70.13
2022-12-18T14:09:11.476Z,70.64
2022-12-18T14:11:39.672Z,71.05
2022-12-18T14:14:07.829Z,69.90
2022-12-18T14:16:35.391Z,70.64
2022-12-18T14:19:13.844Z,69.43
2022-12-18T14:21:47.805Z,69.13
2022-12-18T14:24:19.769Z,69.14
2022-12-18T14:26:47.442Z,69.63
2022-12-18T14:29:26.697Z,70.56
2022-12-18T14:32:11.798Z,69.56
2022-12-18T14:34:41.767Z,70.56
2022-12-18T14:37:11.165Z,69.95
2022-12-18T14:39:39.204Z,70.15
2022-12-18T14:42:05.765Z,70.27
2022-12-18T14:44:44.302Z,70.30
2022-12-18T14:47:18.671Z,70.04
2022-12-18T14:49:45.628Z,70.05
2022-12-18T14:52:23.594Z,70.42
2022-12-18T14:54:52.726Z,71.27
2022-12-18T14:57:23.535Z,70.63
2022-12-18T14:59:50.760Z,71.18
2022-12-18T15:02:23.271Z,70.32
2022-12-18T15:05:01.585Z,70.71
2022-12-18T15:07:28.244Z,71.29
2022-12-18T15:10:10.934Z,70.66
2022-12-18T15:12:40.867Z,71.10
2022-12-18T15:15:40.657Z,71.49
2022-12-18T15:18:14.021Z,70.90
2022-12-18T15:20:42.708Z,71.42
2022-12-18T15:23:15.682Z,71.96
2022-12-18T15:25:43.732Z,70.67
2022-12-18T15:28:20.399Z,70.69
2022-12-18T15:31:00.152Z,71.04
2022-12-18T15:33:30.629Z,71.15
2022-12-18T15:35:58.866Z,70.83
2022-12-18T15:38:25.405Z,71.59
2022-12-18T15:40:53.648Z,71.93
2022-12-18T15:43:22.264Z,71.39
2022-12-18T15:45:48.796Z,71.66
2022-12-18T15:48:21.056Z,72.43
2022-12-18T15:50:47.727Z,71.84
2022-12-18T15:53:14.311Z,71.62
2022-12-18T15:55:40.857Z,72.12
2022-12-18T15:58:11.269Z,71.72
2022-12-18T16:00:40.859Z,71.87
2022-12-18T16:03:07.583Z,72.70
2022-12-18T16:05:34.428Z,71.80
2022-12-18T16:08:00.970Z,72.79
2022-12-18T16:10:28.060Z,72.37
2022-12-18T16:12:54.598Z,71.64
2022-12-18T16:15:24.942Z,72.43
2022-12-18T16:17:54.571Z,72.50
2022-12-18T16:20:22.447Z,73.10
2022-12-18T16:22:49.685Z,72.79
2022-12-18T16:25:19.513Z,72.25
2022-12-18T16:27:46.147Z,72.97
2022-12-18T16:30:15.923Z,72.56
2022-12-18T16:32:44.238Z,73.09
2022-12-18T16:35:12.349Z,72.72
2022-12-18T16:37:39.721Z,73.56
2022-12-18T16:40:07.566Z,73.37
2022-12-18T16:42:34.301Z,74.16
2022-12-18T16:45:00.828Z,73.66
2022-12-18T16:47:27.764Z,73.69
2022-12-18T16:49:55.733Z,74.15
2022-12-18T16:52:22.779Z,74.28
2022-12-18T16:54:49.320Z,74.11
2022-12-18T16:57:18.822Z,74.64
2022-12-18T16:59:48.370Z,74.19
2022-12-18T17:02:19.110Z,73.86
2022-12-18T17:04:47.656Z,73.69
2022-12-18T17:07:16.073Z,73.86
2022-12-18T17:09:42.893Z,74.31
2022-12-18T17:12:09.681Z,73.59
2022-12-18T17:14:36.560Z,74.49
2022-12-18T17:19:50.212Z,74.81
2022-12-18T17:22:18.459Z,74.36
2022-12-18T17:24:46.294Z,75.11
2022-12-18T17:27:12.849Z,75.43
2022-12-18T17:29:45.340Z,75.13
2022-12-18T17:32:15.297Z,74.81
2022-12-18T17:34:41.925Z,74.50
2022-12-18T17:37:09.071Z,74.87
2022-12-18T17:39:37.287Z,75.41
2022-12-18T17:42:06.152Z,75.41
2022-12-18T17:44:35.376Z,75.69
2022-12-18T17:47:02.261Z,74.85
2022-12-18T17:49:29.201Z,75.49
2022-12-18T17:51:59.043Z,74.78
2022-12-18T17:54:28.831Z,75.17
2022-12-18T17:56:56.968Z,74.77
2022-12-18T17:59:23.735Z,75.36
2022-12-18T18:01:50.444Z,74.76
2022-12-18T18:04:17.722Z,75.55
2022-12-18T18:06:46.869Z,75.47
2022-12-18T18:09:16.259Z,75.42
2022-12-18T18:11:43.807Z,75.77
2022-12-18T18:14:17.684Z,75.68
2022-12-18T18:16:47.105Z,75.33
2022-12-18T18:19:17.285Z,74.97
2022-12-18T18:21:46.455Z,74.99
2022-12-18T18:24:15.286Z,75.73
2022-12-18T18:26:42.391Z,76.40
2022-12-18T18:29:30.623Z,75.47
2022-12-18T18:32:01.007Z,75.63
2022-12-18T18:34:34.612Z,76.53
2022-12-18T18:37:03.710Z,75.86
2022-12-18T18:39:30.393Z,75.92
2022-12-18T18:41:57.418Z,75.73
2022-12-18T18:44:25.747Z,75.51
2022-12-18T18:46:55.907Z,75.59
2022-12-18T18:49:27.151Z,75.65
2022-12-18T18:51:54.747Z,75.27
2022-12-18T18:54:21.347Z,76.20
2022-12-18T18:57:19.856Z,74.35
2022-12-18T18:59:35.665Z,75.59
2022-12-18T19:02:06.449Z,75.73
2022-12-18T19:04:34.180Z,75.53
2022-12-18T19:07:01.148Z,75.02
2022-12-18T19:09:28.726Z,75.36
2022-12-18T19:11:56.026Z,76.12
2022-12-18T19:14:23.712Z,75.11
2022-12-18T19:16:50.597Z,75.26
2022-12-18T19:19:18.736Z,75.37
2022-12-18T19:21:47.109Z,75.27
2022-12-18T19:24:13.705Z,74.88
2022-12-18T19:26:40.207Z,75.89
2022-12-18T19:29:10.786Z,76.24
2022-12-18T19:31:37.866Z,75.29
2022-12-18T19:34:05.497Z,75.10
2022-12-18T19:36:35.281Z,75.47
2022-12-18T19:39:06.940Z,75.29
2022-12-18T19:41:33.986Z,74.14
2022-12-18T19:44:07.564Z,75.21
2022-12-18T19:46:35.653Z,75.71
2022-12-18T19:49:03.028Z,75.85
2022-12-18T19:51:31.328Z,75.67
2022-12-18T19:54:01.724Z,75.28
2022-12-18T19:56:31.422Z,75.90
2022-12-18T19:58:58.331Z,74.77
2022-12-18T20:01:26.743Z,74.85
2022-12-18T20:03:55.257Z,75.66
2022-12-18T20:06:26.640Z,75.19
2022-12-18T20:09:00.438Z,75.62
2022-12-18T20:11:29.498Z,75.23
2022-12-18T20:13:56.496Z,75.53
2022-12-18T20:16:23.255Z,75.52
2022-12-18T20:18:49.930Z,75.05
2022-12-18T20:21:18.030Z,75.07
2022-12-18T20:23:45.106Z,75.30
2022-12-18T20:26:11.975Z,74.71
2022-12-18T20:28:40.752Z,74.88
2022-12-18T20:31:08.389Z,75.10
2022-12-18T20:33:37.296Z,74.02
2022-12-18T20:36:06.796Z,74.92
2022-12-18T20:38:35.183Z,74.05
2022-12-18T20:41:07.281Z,74.02
2022-12-18T20:43:34.329Z,74.04
2022-12-18T20:46:03.857Z,74.08
2022-12-18T20:48:31.178Z,74.12
2022-12-18T20:50:58.467Z,74.87
2022-12-18T20:53:27.943Z,74.45
2022-12-18T20:55:54.889Z,74.64
2022-12-18T20:58:21.483Z,74.78
2022-12-18T21:00:48.105Z,75.44
2022-12-18T21:03:16.512Z,73.98
2022-12-18T21:05:43.320Z,73.66
2022-12-18T21:08:09.973Z,74.09
2022-12-18T21:10:39.318Z,74.59
2022-12-18T21:13:08.682Z,75.22
2022-12-18T21:15:35.285Z,74.52
2022-12-18T21:18:01.838Z,74.62
2022-12-18T21:20:29.764Z,74.86
2022-12-18T21:22:57.688Z,75.57
2022-12-18T21:25:35.550Z,74.37
2022-12-18T21:28:02.047Z,74.63
2022-12-18T21:30:28.988Z,75.38
2022-12-18T21:32:55.668Z,74.91
2022-12-18T21:35:22.261Z,75.78
2022-12-18T21:37:52.373Z,74.69
2022-12-18T21:40:19.013Z,74.77
2022-12-18T21:42:45.527Z,75.18
2022-12-18T21:45:12.055Z,75.65
2022-12-18T21:47:38.632Z,76.23
2022-12-18T21:50:06.137Z,75.43
2022-12-18T21:52:32.995Z,75.74
2022-12-18T21:55:06.650Z,75.58
2022-12-18T21:57:34.896Z,75.67
2022-12-18T22:00:01.565Z,77.04
2022-12-18T22:02:39.255Z,77.28
2022-12-18T22:05:06.853Z,78.20
2022-12-18T22:07:33.744Z,77.53
2022-12-18T22:10:02.030Z,77.75
2022-12-18T22:12:28.902Z,77.77
2022-12-18T22:14:55.498Z,77.19
2022-12-18T22:17:21.996Z,79.04
2022-12-18T22:19:49.383Z,79.10
2022-12-18T22:22:15.902Z,79.79
2022-12-18T22:24:42.480Z,79.35
2022-12-18T22:27:10.446Z,79.38
2022-12-18T22:29:37.022Z,79.25
2022-12-18T22:32:04.474Z,80.12
2022-12-18T22:34:36.309Z,79.59
2022-12-18T22:37:03.556Z,80.54
2022-12-18T22:39:30.552Z,80.42
2022-12-18T22:41:57.835Z,80.14
2022-12-18T22:44:26.197Z,80.58
2022-12-18T22:47:05.478Z,80.40
2022-12-18T22:49:35.683Z,82.12
2022-12-18T22:52:02.731Z,81.85
2022-12-18T22:54:29.551Z,81.34
2022-12-18T22:56:56.609Z,81.18
2022-12-18T22:59:23.703Z,81.52
2022-12-18T23:01:58.407Z,82.46
2022-12-18T23:04:26.050Z,82.91
2022-12-18T23:06:54.633Z,82.60
2022-12-18T23:09:21.310Z,81.85
2022-12-18T23:11:48.246Z,82.25
2022-12-18T23:14:15.446Z,81.73
2022-12-18T23:16:43.169Z,82.07
2022-12-18T23:19:14.612Z,81.61
2022-12-18T23:21:41.217Z,81.50
2022-12-18T23:24:08.414Z,81.76
2022-12-18T23:26:35.074Z,82.74
2022-12-18T23:29:02.513Z,82.57
2022-12-18T23:31:30.888Z,83.13
2022-12-18T23:33:59.355Z,83.16
2022-12-18T23:36:27.545Z,82.11
2022-12-18T23:38:57.493Z,81.95
2022-12-18T23:41:26.387Z,81.85
2022-12-18T23:43:54.045Z,83.22
2022-12-18T23:46:22.432Z,83.24
2022-12-18T23:48:49.642Z,82.46
2022-12-18T23:51:18.344Z,82.51
2022-12-18T23:53:46.499Z,82.88
2022-12-18T23:56:13.643Z,82.29
2022-12-18T23:58:40.495Z,83.17
